Main page
METAR-TAF:

METAR-TAF

Airports :

Schenectady County Airport

Schenectady, New York, United States

latitude: 42-51N, longitude: 073-56W, elevation: 115 m

Current weather observation

The report was made 2 hours and 31 minutes ago, at 18:47 UTC
Wind 11 kt from the North with gusts up to 16 kt
Temperature 25°C
Humidity 30%
Pressure 1017 hPa
Visibility: 24.1 km
Scattered clouds at a height of 7000 ft

METAR: KSCH 151847Z 36011G16KT 15SM SCT070 25/06 A3003

Time: 17:18 (21:18 UTC)


TAF: missing

Weather observations and forecasts of more than 4000 airports (METAR and TAF reports).

The available stations are represented by yellow and red dots on the map.

Hover mouse over dot to see the name of the station.

Then click to see weather observations and forecasts.

To change the map : click on the green buttons with a black cross to zoom in, on the green button with a dash to zoom out, or on the green arrows for adjacent maps.


METAR-TAF: